TAPA METAR and TAF | Updated Today

TAPA METAR

V.C. Bird International Airport

Observation time: 45 min. ago

TAPA 052000Z 09011KT 040V140 9999 SCT020 26/20 Q1018 NOSIG

Need help? Read our tutorial on how to read METARs or read the parsed version below.

V.C. Bird International Airport (TAPA) METAR

  • Weather conditions on Sun, 05 Feb 2023 20:00:00 +0000 (45 min. ago):
  • Present conditions: Dry
  • Clouds: Scattered at 610 meters
  • Visibility: Greater than 10 km
  • Wind: 90 degrees at 11 knots
  • Temperature: 26 celsius
  • Dew point: 20 celsius
  • Pressure: 1018 millibars
  • Remarks: None


Useful to know...

TAPA TAF

V.C. Bird International Airport

TAF TAPA 051700Z 0518/0618 08015KT 9999 SCT019 PROB30 TEMPO 0604/0612 08015G25KT SHRA
Observation time: 3:45 hr. ago
Need help? Read our tutorial on how to read TAFs or read the parsed version below.

Parsed version of TAF for V.C. Bird International Airport (TAPA)

  • From 05 February at 18:00 UTC, to day 06 of the month at 18:00 UTC
  • Clouds: Scattered at 579 meters
  • Visibility: Greater than 10 km
  • Wind: 80 degrees at 15
  • Expected to arise temporarily, from 06 February at 04:00 UTC, to day 06 of the month at 12:00 UTC
    Probability of 30%
  • Wind: 80 degrees at 15
  • Other: Showers of rain